createdAt,value
2023-08-13T00:01:26.785Z,18.3
2023-08-13T00:03:07.543Z,18.3
2023-08-13T00:04:48.646Z,18.3
2023-08-13T00:06:29.260Z,18.3
2023-08-13T00:08:09.722Z,18.3
2023-08-13T00:09:51.497Z,18.2
2023-08-13T00:11:31.974Z,18.3
2023-08-13T00:13:12.435Z,18.3
2023-08-13T00:14:52.870Z,18.3
2023-08-13T00:16:33.370Z,18.3
2023-08-13T00:18:14.095Z,18.3
2023-08-13T00:19:54.551Z,18.3
2023-08-13T00:21:35.016Z,18.3
2023-08-13T00:23:15.456Z,18.3
2023-08-13T00:24:55.908Z,18.3
2023-08-13T00:26:36.382Z,18.3
2023-08-13T00:28:16.856Z,18.3
2023-08-13T00:29:57.275Z,18.3
2023-08-13T00:31:37.764Z,18.3
2023-08-13T00:33:18.289Z,18.3
2023-08-13T00:34:58.777Z,18.3
2023-08-13T00:36:39.211Z,18.3
2023-08-13T00:38:19.672Z,18.3
2023-08-13T00:40:00.160Z,18.3
2023-08-13T00:41:57.573Z,18.3
2023-08-13T00:43:38.052Z,18.3
2023-08-13T00:45:18.604Z,18.3
2023-08-13T00:46:59.041Z,18.3
2023-08-13T00:48:39.533Z,18.3
2023-08-13T00:50:20.108Z,18.3
2023-08-13T00:52:00.611Z,18.3
2023-08-13T00:53:41.083Z,18.3
2023-08-13T00:55:21.525Z,18.3
2023-08-13T00:57:02.490Z,18.3
2023-08-13T00:58:42.981Z,18.3
2023-08-13T01:00:23.500Z,18.4
2023-08-13T01:02:04.061Z,18.4
2023-08-13T01:03:44.644Z,18.3
2023-08-13T01:05:25.175Z,18.4
2023-08-13T01:07:05.632Z,18.4
2023-08-13T01:08:46.098Z,18.4
2023-08-13T01:10:26.546Z,18.4
2023-08-13T01:12:06.968Z,18.4
2023-08-13T01:13:47.500Z,18.5
2023-08-13T01:15:28.008Z,18.4
2023-08-13T01:17:08.495Z,18.4
2023-08-13T01:18:49.036Z,18.5
2023-08-13T01:20:29.642Z,18.4
2023-08-13T01:22:10.769Z,18.5
2023-08-13T01:23:51.831Z,18.4
2023-08-13T01:25:32.293Z,18.5
2023-08-13T01:27:12.760Z,18.4
2023-08-13T01:28:53.219Z,18.4
2023-08-13T01:30:33.752Z,18.4
2023-08-13T01:32:14.870Z,18.4
2023-08-13T01:33:56.350Z,18.3
2023-08-13T01:35:37.001Z,18.4
2023-08-13T01:37:17.526Z,18.4
2023-08-13T01:38:57.973Z,18.3
2023-08-13T01:40:38.470Z,18.4
2023-08-13T01:42:18.990Z,18.4
2023-08-13T01:43:59.471Z,18.3
2023-08-13T01:45:40.023Z,18.3
2023-08-13T01:47:20.669Z,18.3
2023-08-13T01:49:01.117Z,18.3
2023-08-13T01:50:41.587Z,18.3
2023-08-13T01:52:22.025Z,18.4
2023-08-13T01:54:02.489Z,18.4
2023-08-13T01:55:43.155Z,18.4
2023-08-13T01:57:23.600Z,18.3
2023-08-13T01:59:04.086Z,18.4
2023-08-13T02:00:44.650Z,18.4
2023-08-13T02:03:13.864Z,18.4
2023-08-13T02:04:54.390Z,18.4
2023-08-13T02:06:35.029Z,18.4
2023-08-13T02:08:15.478Z,18.4
2023-08-13T02:09:55.933Z,18.4
2023-08-13T02:11:36.390Z,18.4
2023-08-13T02:13:16.942Z,18.4
2023-08-13T02:14:57.527Z,18.4
2023-08-13T02:16:37.977Z,18.4
2023-08-13T02:18:18.531Z,18.4
2023-08-13T02:19:58.976Z,18.4
2023-08-13T02:21:39.428Z,18.4
2023-08-13T02:23:19.919Z,18.4
2023-08-13T02:25:00.439Z,18.3
2023-08-13T02:26:40.905Z,18.3
2023-08-13T02:28:21.385Z,18.4
2023-08-13T02:30:01.849Z,18.4
2023-08-13T02:31:42.367Z,18.4
2023-08-13T02:33:22.838Z,18.3
2023-08-13T02:35:03.283Z,18.4
2023-08-13T02:36:43.733Z,18.3
2023-08-13T02:38:24.192Z,18.4
2023-08-13T02:40:04.647Z,18.3
2023-08-13T02:41:45.111Z,18.3
2023-08-13T02:43:25.553Z,18.4
2023-08-13T02:45:06.137Z,18.3
2023-08-13T02:46:46.590Z,18.3
2023-08-13T02:48:27.097Z,18.4
2023-08-13T02:50:07.823Z,18.4
2023-08-13T02:51:48.356Z,18.4
2023-08-13T02:53:28.796Z,18.4
2023-08-13T02:55:09.274Z,18.4
2023-08-13T02:56:49.730Z,18.4
2023-08-13T02:58:30.173Z,18.4
2023-08-13T03:00:10.643Z,18.4
2023-08-13T03:01:51.238Z,18.4
2023-08-13T03:03:38.708Z,18.4
2023-08-13T03:05:32.071Z,18.4
2023-08-13T03:07:12.616Z,18.4
2023-08-13T03:08:53.072Z,18.4
2023-08-13T03:10:33.536Z,18.4
2023-08-13T03:12:14.161Z,18.4
2023-08-13T03:13:54.946Z,18.4
2023-08-13T03:15:35.442Z,18.3
2023-08-13T03:17:15.962Z,18.4
2023-08-13T03:18:56.416Z,18.4
2023-08-13T03:20:36.901Z,18.4
2023-08-13T03:22:17.326Z,18.4
2023-08-13T03:23:57.782Z,18.3
2023-08-13T03:25:38.246Z,18.3
2023-08-13T03:27:18.698Z,18.4
2023-08-13T03:28:59.171Z,18.4
2023-08-13T03:30:39.636Z,18.3
2023-08-13T03:32:20.062Z,18.3
2023-08-13T03:34:00.536Z,18.4
2023-08-13T03:35:41.082Z,18.3
2023-08-13T03:37:21.533Z,18.4
2023-08-13T03:39:02.000Z,18.4
2023-08-13T03:40:42.443Z,18.4
2023-08-13T03:42:22.899Z,18.4
2023-08-13T03:44:03.361Z,18.4
2023-08-13T03:45:43.863Z,18.4
2023-08-13T03:47:24.390Z,18.4
2023-08-13T03:49:04.950Z,18.4
2023-08-13T03:50:45.407Z,18.4
2023-08-13T03:52:25.863Z,18.4
2023-08-13T03:54:23.223Z,18.3
2023-08-13T03:56:03.673Z,18.3
2023-08-13T03:57:44.137Z,18.4
2023-08-13T03:59:24.593Z,18.3
2023-08-13T04:01:05.100Z,18.3
2023-08-13T04:02:46.268Z,18.3
2023-08-13T04:04:27.093Z,18.3
2023-08-13T04:06:07.851Z,18.3
2023-08-13T04:07:48.314Z,18.3
2023-08-13T04:09:28.745Z,18.3
2023-08-13T04:11:09.370Z,18.3
2023-08-13T04:12:49.880Z,18.3
2023-08-13T04:14:30.324Z,18.3
2023-08-13T04:16:10.880Z,18.3
2023-08-13T04:17:51.467Z,18.3
2023-08-13T04:19:32.010Z,18.2
2023-08-13T04:21:12.466Z,18.2
2023-08-13T04:22:52.902Z,18.2
2023-08-13T04:24:33.366Z,18.2
2023-08-13T04:26:13.819Z,18.2
2023-08-13T04:27:54.294Z,18.2
2023-08-13T04:29:34.723Z,18.2
2023-08-13T04:31:15.219Z,18.2
2023-08-13T04:32:55.826Z,18.2
2023-08-13T04:34:36.328Z,18.2
2023-08-13T04:36:16.756Z,18.2
2023-08-13T04:37:57.209Z,18.2
2023-08-13T04:39:37.667Z,18.2
2023-08-13T04:41:18.138Z,18.2
2023-08-13T04:42:58.615Z,18.2
2023-08-13T04:44:39.138Z,18.2
2023-08-13T04:46:19.617Z,18.2
2023-08-13T04:48:00.246Z,18.2
2023-08-13T04:49:40.817Z,18.2
2023-08-13T04:51:21.369Z,18.2
2023-08-13T04:53:01.839Z,18.2
2023-08-13T04:54:43.958Z,18.2
2023-08-13T04:56:24.712Z,18.2
2023-08-13T04:58:05.247Z,18.2
2023-08-13T04:59:45.693Z,18.2
2023-08-13T05:01:26.213Z,18.2
2023-08-13T05:03:06.830Z,18.2
2023-08-13T05:04:47.301Z,18.2
2023-08-13T05:06:27.835Z,18.2
2023-08-13T05:08:08.295Z,18.2
2023-08-13T05:09:48.739Z,18.2
2023-08-13T05:11:29.219Z,18.2
2023-08-13T05:13:09.656Z,18.2
2023-08-13T05:14:50.098Z,18.2
2023-08-13T05:16:30.598Z,18.2
2023-08-13T05:18:11.147Z,18.2
2023-08-13T05:19:51.880Z,18.2
2023-08-13T05:21:32.367Z,18.2
2023-08-13T05:23:12.795Z,18.2
2023-08-13T05:24:53.255Z,18.2
2023-08-13T05:26:33.737Z,18.2
2023-08-13T05:28:14.163Z,18.2
2023-08-13T05:29:54.821Z,18.2
2023-08-13T05:31:35.324Z,18.2
2023-08-13T05:33:15.848Z,18.2
2023-08-13T05:34:56.289Z,18.2
2023-08-13T05:36:36.756Z,18.3
2023-08-13T05:38:17.198Z,18.3
2023-08-13T05:39:57.755Z,18.3
2023-08-13T05:41:38.218Z,18.3
2023-08-13T05:43:35.575Z,18.3
2023-08-13T05:45:16.037Z,18.3
2023-08-13T05:46:56.510Z,18.3
2023-08-13T05:48:36.981Z,18.3
2023-08-13T05:50:17.504Z,18.3
2023-08-13T05:51:57.943Z,18.3
2023-08-13T05:53:38.406Z,18.3
2023-08-13T05:55:18.902Z,18.3
2023-08-13T05:56:59.418Z,18.3
2023-08-13T05:58:39.892Z,18.3
2023-08-13T06:00:20.284Z,18.3
2023-08-13T06:02:00.812Z,18.3
2023-08-13T06:03:41.315Z,18.3
2023-08-13T06:05:21.903Z,18.3
2023-08-13T06:07:02.360Z,18.3
2023-08-13T06:08:42.822Z,18.3
2023-08-13T06:10:23.283Z,18.3
2023-08-13T06:12:03.716Z,18.3
2023-08-13T06:13:44.258Z,18.3
2023-08-13T06:15:24.751Z,18.3
2023-08-13T06:17:14.202Z,18.3
2023-08-13T06:18:55.698Z,18.3
2023-08-13T06:20:36.144Z,18.3
2023-08-13T06:22:16.887Z,18.3
2023-08-13T06:23:58.189Z,18.3
2023-08-13T06:25:38.628Z,18.3
2023-08-13T06:27:19.103Z,18.3
2023-08-13T06:28:59.545Z,18.4
2023-08-13T06:30:40.132Z,18.3
2023-08-13T06:32:20.713Z,18.3
2023-08-13T06:34:01.218Z,18.3
2023-08-13T06:35:41.671Z,18.3
2023-08-13T06:37:22.147Z,18.3
2023-08-13T06:39:02.581Z,18.3
2023-08-13T06:40:43.150Z,18.3
2023-08-13T06:42:23.609Z,18.3
2023-08-13T06:44:04.063Z,18.3
2023-08-13T06:45:44.505Z,18.3
2023-08-13T06:47:25.018Z,18.3
2023-08-13T06:49:05.629Z,18.3
2023-08-13T06:50:46.098Z,18.3
2023-08-13T06:52:26.545Z,18.3
2023-08-13T06:54:06.993Z,18.3
2023-08-13T06:55:47.474Z,18.3
2023-08-13T06:57:27.897Z,18.3
2023-08-13T06:59:08.357Z,18.3
2023-08-13T07:00:48.821Z,18.4
2023-08-13T07:02:29.303Z,18.3
2023-08-13T07:04:09.936Z,18.3
2023-08-13T07:05:50.394Z,18.3
2023-08-13T07:07:31.156Z,18.3
2023-08-13T07:09:11.615Z,18.3
2023-08-13T07:10:52.094Z,18.3
2023-08-13T07:12:32.522Z,18.3
2023-08-13T07:14:12.978Z,18.3
2023-08-13T07:15:53.434Z,18.3
2023-08-13T07:17:34.140Z,18.3
2023-08-13T07:19:14.777Z,18.3
2023-08-13T07:20:55.212Z,18.3
2023-08-13T07:22:35.665Z,18.3
2023-08-13T07:24:16.129Z,18.3
2023-08-13T07:25:56.680Z,18.3
2023-08-13T07:27:37.134Z,18.3
2023-08-13T07:29:17.605Z,18.3
2023-08-13T07:30:58.145Z,18.3
2023-08-13T07:32:55.594Z,18.3
2023-08-13T07:34:36.181Z,18.3
2023-08-13T07:36:16.692Z,18.3
2023-08-13T07:37:57.345Z,18.3
2023-08-13T07:39:37.839Z,18.3
2023-08-13T07:41:18.295Z,18.3
2023-08-13T07:42:59.220Z,18.3
2023-08-13T07:44:39.712Z,18.3
2023-08-13T07:46:20.247Z,18.3
2023-08-13T07:48:00.935Z,18.3
2023-08-13T07:49:41.738Z,18.3
2023-08-13T07:51:22.507Z,18.3
2023-08-13T07:53:03.181Z,18.3
2023-08-13T07:54:43.993Z,18.3
2023-08-13T07:56:24.522Z,18.3
2023-08-13T07:58:05.125Z,18.3
2023-08-13T07:59:45.702Z,18.3
2023-08-13T08:03:17.437Z,18.3
2023-08-13T08:04:58.045Z,18.3
2023-08-13T08:06:38.528Z,18.3
2023-08-13T08:08:19.154Z,18.3
2023-08-13T08:09:59.609Z,18.3
2023-08-13T08:11:40.283Z,18.3
2023-08-13T08:13:20.724Z,18.3
2023-08-13T08:15:01.237Z,18.3
2023-08-13T08:16:41.861Z,18.3
2023-08-13T08:18:22.326Z,18.3
2023-08-13T08:20:02.754Z,18.3
2023-08-13T08:21:43.832Z,18.3
2023-08-13T08:23:24.280Z,18.3
2023-08-13T08:25:04.749Z,18.3
2023-08-13T08:26:45.719Z,18.3
2023-08-13T08:28:26.380Z,18.3
2023-08-13T08:30:06.857Z,18.3
2023-08-13T08:31:47.281Z,18.3
2023-08-13T08:33:27.766Z,18.3
2023-08-13T08:35:08.202Z,18.3
2023-08-13T08:36:48.643Z,18.3
2023-08-13T08:38:29.097Z,18.3
2023-08-13T08:40:09.579Z,18.3
2023-08-13T08:41:50.012Z,18.3
2023-08-13T08:43:30.466Z,18.5
2023-08-13T08:45:10.929Z,18.5
2023-08-13T08:46:51.421Z,18.5
2023-08-13T08:48:32.062Z,18.5
2023-08-13T08:50:12.492Z,18.5
2023-08-13T08:51:52.962Z,18.5
2023-08-13T08:53:33.416Z,18.6
2023-08-13T08:55:13.869Z,18.7
2023-08-13T08:56:54.318Z,18.6
2023-08-13T08:58:34.783Z,18.6
2023-08-13T09:00:15.224Z,18.5
2023-08-13T09:01:55.704Z,18.6
2023-08-13T09:03:36.297Z,18.5
2023-08-13T09:05:16.910Z,18.5
2023-08-13T09:06:57.367Z,18.5
2023-08-13T09:08:37.825Z,18.5
2023-08-13T09:10:18.265Z,18.5
2023-08-13T09:11:58.732Z,18.5
2023-08-13T09:13:39.188Z,18.5
2023-08-13T09:15:19.734Z,18.5
2023-08-13T09:17:00.249Z,18.5
2023-08-13T09:18:40.908Z,18.5
2023-08-13T09:20:21.753Z,18.5
2023-08-13T09:22:02.216Z,18.5
2023-08-13T09:23:42.728Z,18.5
2023-08-13T09:25:23.181Z,18.6
2023-08-13T09:27:03.750Z,18.6
2023-08-13T09:28:44.201Z,18.5
2023-08-13T09:30:24.653Z,18.6
2023-08-13T09:32:05.129Z,18.5
2023-08-13T09:33:45.605Z,18.6
2023-08-13T09:35:26.138Z,18.5
2023-08-13T09:37:06.623Z,18.5
2023-08-13T09:38:47.033Z,18.5
2023-08-13T09:40:27.534Z,18.5
2023-08-13T09:42:08.046Z,18.5
2023-08-13T09:43:48.609Z,18.5
2023-08-13T09:45:29.082Z,18.5
2023-08-13T09:47:09.521Z,18.5
2023-08-13T09:48:49.997Z,18.5
2023-08-13T09:50:30.440Z,18.5
2023-08-13T09:52:10.915Z,18.5
2023-08-13T09:54:08.403Z,18.5
2023-08-13T09:55:48.849Z,18.5
2023-08-13T09:57:29.397Z,18.4
2023-08-13T09:59:10.010Z,18.5
2023-08-13T10:00:50.578Z,18.5
2023-08-13T10:02:31.166Z,18.5
2023-08-13T10:04:11.862Z,18.5
2023-08-13T10:05:52.497Z,18.5
2023-08-13T10:07:32.954Z,18.5
2023-08-13T10:09:13.419Z,18.6
2023-08-13T10:10:53.870Z,18.5
2023-08-13T10:12:34.324Z,18.5
2023-08-13T10:14:14.798Z,18.5
2023-08-13T10:15:55.237Z,18.5
2023-08-13T10:17:35.732Z,18.5
2023-08-13T10:19:16.299Z,18.5
2023-08-13T10:20:56.912Z,18.5
2023-08-13T10:22:37.382Z,18.5
2023-08-13T10:24:17.826Z,18.5
2023-08-13T10:25:58.277Z,18.5
2023-08-13T10:27:38.751Z,18.5
2023-08-13T10:29:19.198Z,18.5
2023-08-13T10:30:59.644Z,18.5
2023-08-13T10:32:40.170Z,18.5
2023-08-13T10:34:20.683Z,18.5
2023-08-13T10:36:02.182Z,18.5
2023-08-13T10:37:42.706Z,18.5
2023-08-13T10:39:23.149Z,18.5
2023-08-13T10:41:03.671Z,18.5
2023-08-13T10:42:44.169Z,18.5
2023-08-13T10:44:24.748Z,18.5
2023-08-13T10:46:05.277Z,18.5
2023-08-13T10:47:45.806Z,18.5
2023-08-13T10:49:26.521Z,18.5
2023-08-13T10:51:07.080Z,18.5
2023-08-13T10:52:47.720Z,18.5
2023-08-13T10:54:28.591Z,18.5
2023-08-13T10:56:09.291Z,18.5
2023-08-13T10:57:49.797Z,18.5
2023-08-13T10:59:30.264Z,18.5
2023-08-13T11:01:10.892Z,18.5
2023-08-13T11:02:51.439Z,18.5
2023-08-13T11:04:32.059Z,18.5
2023-08-13T11:06:12.502Z,18.5
2023-08-13T11:07:52.953Z,18.5
2023-08-13T11:09:33.621Z,18.5
2023-08-13T11:11:14.079Z,18.5
2023-08-13T11:12:54.515Z,18.5
2023-08-13T11:14:35.001Z,18.5
2023-08-13T11:16:15.456Z,18.5
2023-08-13T11:17:56.322Z,18.5
2023-08-13T11:19:36.890Z,18.5
2023-08-13T11:21:17.411Z,18.5
2023-08-13T11:22:57.864Z,18.5
2023-08-13T11:24:38.336Z,18.5
2023-08-13T11:26:18.787Z,18.5
2023-08-13T11:27:59.240Z,18.5
2023-08-13T11:29:39.806Z,18.5
2023-08-13T11:31:20.248Z,18.5
2023-08-13T11:33:00.762Z,18.5
2023-08-13T11:34:41.492Z,18.5
2023-08-13T11:36:21.922Z,18.5
2023-08-13T11:38:02.391Z,18.5
2023-08-13T11:39:42.836Z,18.5
2023-08-13T11:43:20.867Z,18.5
2023-08-13T11:45:01.319Z,18.5
2023-08-13T11:46:41.764Z,18.5
2023-08-13T11:48:22.402Z,18.5
2023-08-13T11:50:03.337Z,18.5
2023-08-13T11:51:43.841Z,18.5
2023-08-13T11:53:24.400Z,18.5
2023-08-13T11:55:04.851Z,18.5
2023-08-13T11:56:45.323Z,18.5
2023-08-13T11:58:25.771Z,18.5
2023-08-13T12:00:06.225Z,18.5
2023-08-13T12:01:46.706Z,18.5
2023-08-13T12:03:27.315Z,18.5
2023-08-13T12:05:08.025Z,18.5
2023-08-13T12:06:48.461Z,18.5
2023-08-13T12:08:29.010Z,18.5
2023-08-13T12:10:09.570Z,18.5
2023-08-13T12:11:50.026Z,18.5
2023-08-13T12:13:30.479Z,18.5
2023-08-13T12:15:10.956Z,18.5
2023-08-13T12:16:51.498Z,18.5
2023-08-13T12:18:31.954Z,18.5
2023-08-13T12:20:12.552Z,18.5
2023-08-13T12:21:53.181Z,18.5
2023-08-13T12:23:33.765Z,18.5
2023-08-13T12:25:14.299Z,18.5
2023-08-13T12:26:54.841Z,18.5
2023-08-13T12:28:35.326Z,18.5
2023-08-13T12:30:15.768Z,18.6
2023-08-13T12:31:56.209Z,18.5
2023-08-13T12:33:36.667Z,18.6
2023-08-13T12:35:17.274Z,18.6
2023-08-13T12:36:57.782Z,18.6
2023-08-13T12:38:38.669Z,18.6
2023-08-13T12:40:21.667Z,18.6
2023-08-13T12:42:02.140Z,18.6
2023-08-13T12:43:42.602Z,18.6
2023-08-13T12:45:23.063Z,18.6
2023-08-13T12:47:03.515Z,18.6
2023-08-13T12:48:43.975Z,18.6
2023-08-13T12:50:24.535Z,18.6
2023-08-13T12:52:05.326Z,18.6
2023-08-13T12:53:45.987Z,18.6
2023-08-13T12:55:26.591Z,18.6
2023-08-13T12:57:07.114Z,18.6
2023-08-13T12:58:47.973Z,18.6
2023-08-13T13:00:28.499Z,18.6
2023-08-13T13:02:09.024Z,18.6
2023-08-13T13:03:49.501Z,18.6
2023-08-13T13:05:29.967Z,18.7
2023-08-13T13:07:10.434Z,18.7
2023-08-13T13:08:50.980Z,18.7
2023-08-13T13:10:31.408Z,18.7
2023-08-13T13:12:11.873Z,18.7
2023-08-13T13:13:52.857Z,18.7
2023-08-13T13:15:33.388Z,18.7
2023-08-13T13:17:13.878Z,18.7
2023-08-13T13:18:54.410Z,18.7
2023-08-13T13:20:34.888Z,18.7
2023-08-13T13:22:15.583Z,18.7
2023-08-13T13:23:57.305Z,18.7
2023-08-13T13:25:37.749Z,18.7
2023-08-13T13:27:18.214Z,18.7
2023-08-13T13:28:58.662Z,18.7
2023-08-13T13:30:56.900Z,18.7
2023-08-13T13:32:37.434Z,18.7
2023-08-13T13:34:18.162Z,18.7
2023-08-13T13:35:58.678Z,18.7
2023-08-13T13:37:39.282Z,18.7
2023-08-13T13:39:19.881Z,18.7
2023-08-13T13:41:00.406Z,19
2023-08-13T13:42:40.869Z,18.9
2023-08-13T13:44:21.307Z,18.8
2023-08-13T13:46:01.856Z,18.8
2023-08-13T13:47:42.431Z,18.8
2023-08-13T13:49:22.981Z,18.7
2023-08-13T13:51:03.483Z,18.7
2023-08-13T13:52:43.990Z,18.7
2023-08-13T13:54:24.450Z,18.7
2023-08-13T13:56:05.020Z,18.7
2023-08-13T13:57:45.465Z,18.7
2023-08-13T13:59:25.954Z,18.7
2023-08-13T14:01:06.483Z,18.7
2023-08-13T14:03:20.811Z,18.7
2023-08-13T14:05:01.516Z,18.7
2023-08-13T14:06:42.003Z,18.7
2023-08-13T14:08:22.451Z,18.7
2023-08-13T14:10:02.991Z,18.7
2023-08-13T14:11:43.439Z,18.7
2023-08-13T14:13:23.924Z,18.7
2023-08-13T14:15:04.764Z,18.7
2023-08-13T14:16:45.486Z,18.7
2023-08-13T14:18:25.994Z,18.7
2023-08-13T14:20:06.442Z,18.7
2023-08-13T14:21:46.916Z,18.7
2023-08-13T14:23:27.352Z,18.7
2023-08-13T14:25:07.813Z,18.7
2023-08-13T14:26:48.268Z,18.7
2023-08-13T14:28:28.727Z,18.6
2023-08-13T14:30:09.174Z,18.7
2023-08-13T14:31:49.674Z,18.7
2023-08-13T14:33:30.308Z,18.7
2023-08-13T14:35:10.747Z,18.6
2023-08-13T14:36:51.236Z,18.6
2023-08-13T14:38:31.768Z,18.7
2023-08-13T14:40:12.429Z,18.6
2023-08-13T14:41:56.780Z,18.7
2023-08-13T14:43:37.320Z,18.7
2023-08-13T14:45:17.773Z,18.7
2023-08-13T14:46:58.242Z,18.6
2023-08-13T14:48:38.684Z,18.6
2023-08-13T14:50:19.139Z,18.6
2023-08-13T14:51:59.627Z,18.6
2023-08-13T14:53:40.052Z,18.6
2023-08-13T14:55:20.517Z,18.7
2023-08-13T14:57:01.011Z,18.6
2023-08-13T14:58:41.535Z,18.6
2023-08-13T15:00:23.514Z,18.6
2023-08-13T15:02:04.101Z,18.6
2023-08-13T15:03:44.805Z,18.6
2023-08-13T15:05:25.511Z,18.6
2023-08-13T15:07:05.977Z,18.6
2023-08-13T15:08:46.405Z,18.6
2023-08-13T15:10:26.869Z,18.6
2023-08-13T15:12:07.319Z,18.6
2023-08-13T15:13:47.775Z,18.6
2023-08-13T15:15:28.261Z,18.6
2023-08-13T15:17:08.790Z,18.6
2023-08-13T15:18:49.247Z,18.6
2023-08-13T15:20:29.714Z,18.7
2023-08-13T15:22:10.182Z,18.6
2023-08-13T15:23:50.629Z,18.6
2023-08-13T15:25:35.373Z,18.6
2023-08-13T15:27:35.276Z,18.6
2023-08-13T15:29:15.756Z,18.6
2023-08-13T15:30:56.268Z,18.6
2023-08-13T15:32:37.111Z,18.6
2023-08-13T15:34:17.713Z,18.6
2023-08-13T15:35:58.582Z,18.6
2023-08-13T15:37:39.169Z,18.6
2023-08-13T15:39:19.705Z,18.6
2023-08-13T15:41:00.149Z,18.6
2023-08-13T15:42:40.620Z,18.6
2023-08-13T15:44:21.066Z,18.6
2023-08-13T15:46:01.528Z,18.6
2023-08-13T15:47:42.003Z,18.6
2023-08-13T15:49:22.546Z,18.6
2023-08-13T15:51:02.988Z,18.6
2023-08-13T15:54:40.882Z,18.6
2023-08-13T15:56:21.341Z,18.6
2023-08-13T15:58:01.806Z,18.6
2023-08-13T15:59:42.249Z,18.6
2023-08-13T16:01:22.797Z,18.6
2023-08-13T16:03:03.304Z,18.6
2023-08-13T16:04:44.070Z,18.6
2023-08-13T16:06:24.715Z,18.6
2023-08-13T16:08:06.374Z,18.6
2023-08-13T16:09:49.277Z,18.6
2023-08-13T16:11:29.753Z,18.6
2023-08-13T16:13:10.187Z,18.6
2023-08-13T16:14:50.652Z,18.6
2023-08-13T16:16:31.161Z,18.6
2023-08-13T16:18:11.977Z,18.6
2023-08-13T16:19:52.884Z,18.6
2023-08-13T16:21:33.422Z,18.6
2023-08-13T16:23:14.077Z,18.6
2023-08-13T16:24:54.506Z,18.6
2023-08-13T16:26:34.977Z,18.6
2023-08-13T16:28:15.620Z,18.6
2023-08-13T16:29:56.079Z,18.6
2023-08-13T16:31:36.573Z,18.6
2023-08-13T16:33:17.124Z,18.6
2023-08-13T16:34:57.759Z,18.6
2023-08-13T16:36:38.213Z,18.6
2023-08-13T16:38:18.682Z,18.6
2023-08-13T16:39:59.156Z,18.6
2023-08-13T16:41:39.572Z,18.6
2023-08-13T16:43:20.051Z,18.6
2023-08-13T16:45:00.498Z,18.6
2023-08-13T16:46:40.990Z,18.6
2023-08-13T16:48:21.498Z,18.6
2023-08-13T16:50:13.975Z,18.6
2023-08-13T16:51:55.517Z,18.6
2023-08-13T16:53:36.004Z,18.6
2023-08-13T16:55:16.548Z,18.6
2023-08-13T16:56:57.059Z,18.6
2023-08-13T16:58:37.561Z,18.6
2023-08-13T17:00:18.015Z,18.6
2023-08-13T17:01:58.481Z,18.6
2023-08-13T17:03:39.078Z,18.6
2023-08-13T17:05:19.779Z,18.6
2023-08-13T17:07:00.245Z,18.6
2023-08-13T17:08:40.733Z,18.6
2023-08-13T17:10:21.268Z,18.6
2023-08-13T17:12:01.810Z,18.6
2023-08-13T17:13:42.279Z,18.6
2023-08-13T17:15:25.378Z,18.6
2023-08-13T17:17:06.457Z,18.6
2023-08-13T17:18:46.924Z,18.6
2023-08-13T17:20:27.370Z,18.6
2023-08-13T17:22:07.822Z,18.6
2023-08-13T17:23:48.316Z,18.6
2023-08-13T17:25:28.773Z,18.6
2023-08-13T17:27:09.285Z,18.6
2023-08-13T17:28:49.749Z,18.6
2023-08-13T17:30:30.223Z,18.5
2023-08-13T17:32:10.661Z,18.6
2023-08-13T17:33:51.125Z,18.6
2023-08-13T17:35:31.570Z,18.6
2023-08-13T17:37:12.177Z,18.6
2023-08-13T17:38:53.233Z,18.6
2023-08-13T17:40:33.751Z,18.6
2023-08-13T17:42:31.121Z,18.7
2023-08-13T17:44:11.661Z,18.7
2023-08-13T17:45:52.132Z,18.7
2023-08-13T17:47:32.714Z,18.7
2023-08-13T17:52:41.219Z,18.7
2023-08-13T17:54:08.327Z,18.7
2023-08-13T18:00:45.727Z,18.7
2023-08-13T18:02:26.251Z,18.6
2023-08-13T18:04:07.137Z,18.7
2023-08-13T18:05:47.609Z,18.7
2023-08-13T18:07:28.233Z,18.7
2023-08-13T18:09:08.708Z,18.7
2023-08-13T18:10:49.192Z,18.7
2023-08-13T18:12:29.714Z,18.7
2023-08-13T18:14:10.172Z,18.7
2023-08-13T18:15:50.663Z,18.7
2023-08-13T18:17:31.303Z,18.7
2023-08-13T18:19:11.745Z,18.7
2023-08-13T18:20:52.618Z,18.7
2023-08-13T18:22:33.066Z,18.7
2023-08-13T18:24:13.544Z,18.7
2023-08-13T18:25:54.114Z,18.7
2023-08-13T18:27:34.548Z,18.7
2023-08-13T18:29:15.032Z,18.7
2023-08-13T18:30:55.712Z,18.7
2023-08-13T18:32:36.332Z,18.7
2023-08-13T18:34:16.884Z,18.7
2023-08-13T18:35:57.324Z,18.7
2023-08-13T18:37:37.780Z,18.7
2023-08-13T18:39:18.248Z,18.7
2023-08-13T18:40:58.715Z,18.7
2023-08-13T18:42:39.261Z,18.7
2023-08-13T18:44:19.721Z,18.7
2023-08-13T18:46:00.172Z,18.7
2023-08-13T18:47:40.778Z,18.7
2023-08-13T18:49:21.276Z,18.7
2023-08-13T18:51:01.857Z,18.7
2023-08-13T18:52:42.336Z,18.7
2023-08-13T18:54:22.859Z,18.7
2023-08-13T18:56:03.363Z,18.7
2023-08-13T18:57:44.025Z,18.7
2023-08-13T18:59:24.530Z,18.7
2023-08-13T19:01:05.020Z,18.7
2023-08-13T19:02:45.521Z,18.7
2023-08-13T19:04:26.115Z,18.7
2023-08-13T19:06:06.552Z,18.7
2023-08-13T19:07:47.011Z,18.7
2023-08-13T19:09:27.468Z,18.7
2023-08-13T19:11:08.090Z,18.7
2023-08-13T19:12:48.579Z,18.7
2023-08-13T19:14:29.042Z,18.7
2023-08-13T19:16:09.531Z,18.7
2023-08-13T19:17:50.088Z,18.7
2023-08-13T19:19:30.606Z,18.7
2023-08-13T19:21:11.069Z,18.7
2023-08-13T19:22:51.528Z,18.7
2023-08-13T19:24:31.982Z,18.7
2023-08-13T19:26:12.594Z,18.7
2023-08-13T19:27:53.096Z,18.7
2023-08-13T19:29:33.552Z,18.7
2023-08-13T19:31:14.050Z,18.7
2023-08-13T19:32:55.790Z,18.7
2023-08-13T19:34:38.397Z,18.7
2023-08-13T19:36:18.877Z,18.7
2023-08-13T19:37:59.298Z,18.7
2023-08-13T19:39:39.767Z,18.7
2023-08-13T19:41:20.236Z,18.7
2023-08-13T19:43:00.693Z,18.7
2023-08-13T19:44:41.134Z,18.7
2023-08-13T19:44:58.037Z,18.7
2023-08-13T19:46:38.615Z,18.7
2023-08-13T19:48:19.080Z,18.7
2023-08-13T19:49:59.532Z,18.7
2023-08-13T19:51:39.989Z,18.7
2023-08-13T19:53:20.631Z,18.7
2023-08-13T19:55:01.102Z,18.7
2023-08-13T19:56:41.675Z,18.7
2023-08-13T19:58:22.148Z,18.7
2023-08-13T20:00:02.666Z,18.7
2023-08-13T20:01:43.143Z,18.7
2023-08-13T20:03:23.889Z,18.7
2023-08-13T20:05:04.653Z,18.7
2023-08-13T20:06:45.094Z,18.7
2023-08-13T20:08:25.671Z,18.7
2023-08-13T20:10:06.225Z,18.7
2023-08-13T20:11:46.797Z,18.7
2023-08-13T20:13:27.346Z,18.7
2023-08-13T20:15:07.787Z,18.7
2023-08-13T20:16:48.264Z,18.7
2023-08-13T20:18:28.920Z,18.7
2023-08-13T20:20:09.358Z,18.7
2023-08-13T20:21:50.043Z,18.7
2023-08-13T20:23:30.583Z,18.7
2023-08-13T20:25:11.045Z,18.7
2023-08-13T20:26:51.632Z,18.7
2023-08-13T20:28:32.146Z,18.7
2023-08-13T20:30:12.599Z,18.7
2023-08-13T20:31:53.094Z,18.7
2023-08-13T20:33:33.719Z,18.7
2023-08-13T20:35:14.172Z,18.7
2023-08-13T20:36:54.641Z,18.7
2023-08-13T20:38:35.095Z,18.7
2023-08-13T20:40:15.556Z,18.7
2023-08-13T20:41:56.033Z,18.7
2023-08-13T20:43:36.557Z,18.7
2023-08-13T20:45:17.026Z,18.7
2023-08-13T20:46:57.677Z,18.7
2023-08-13T20:48:38.124Z,18.7
2023-08-13T20:50:18.652Z,18.7
2023-08-13T20:51:59.343Z,18.7
2023-08-13T20:53:39.805Z,18.7
2023-08-13T20:55:20.270Z,18.7
2023-08-13T20:57:00.745Z,18.7
2023-08-13T20:58:41.380Z,18.7
2023-08-13T21:00:21.849Z,18.7
2023-08-13T21:03:22.208Z,18.7
2023-08-13T21:05:02.691Z,18.7
2023-08-13T21:06:43.135Z,18.7
2023-08-13T21:08:23.591Z,18.7
2023-08-13T21:10:04.056Z,18.7
2023-08-13T21:11:44.516Z,18.7
2023-08-13T21:13:24.986Z,18.7
2023-08-13T21:15:05.564Z,18.7
2023-08-13T21:16:46.101Z,18.7
2023-08-13T21:18:26.645Z,18.7
2023-08-13T21:20:07.101Z,18.7
2023-08-13T21:21:47.652Z,18.7
2023-08-13T21:23:28.114Z,18.7
2023-08-13T21:25:08.571Z,18.7
2023-08-13T21:26:49.113Z,18.7
2023-08-13T21:28:29.787Z,18.7
2023-08-13T21:30:10.230Z,18.7
2023-08-13T21:31:51.006Z,18.7
2023-08-13T21:33:31.461Z,18.7
2023-08-13T21:35:12.667Z,18.7
2023-08-13T21:36:53.955Z,18.7
2023-08-13T21:38:34.575Z,18.7
2023-08-13T21:40:15.017Z,18.7
2023-08-13T21:41:55.685Z,18.7
2023-08-13T21:43:36.162Z,18.7
2023-08-13T21:45:16.585Z,18.7
2023-08-13T21:46:57.066Z,18.7
2023-08-13T21:48:37.499Z,18.7
2023-08-13T21:50:17.958Z,18.7
2023-08-13T21:51:58.415Z,18.7
2023-08-13T21:53:38.867Z,18.7
2023-08-13T21:55:19.324Z,18.7
2023-08-13T21:56:59.787Z,18.7
2023-08-13T21:58:40.263Z,18.7
2023-08-13T22:00:20.684Z,18.7
2023-08-13T22:02:01.154Z,18.7
2023-08-13T22:03:41.744Z,18.7
2023-08-13T22:05:22.460Z,18.7
2023-08-13T22:07:02.940Z,18.7
2023-08-13T22:08:43.384Z,18.7
2023-08-13T22:10:23.837Z,18.7
2023-08-13T22:12:04.287Z,18.7
2023-08-13T22:13:44.766Z,18.7
2023-08-13T22:15:25.217Z,18.7
2023-08-13T22:17:05.656Z,18.7
2023-08-13T22:18:46.106Z,18.7
2023-08-13T22:20:26.580Z,18.7
2023-08-13T22:22:07.020Z,18.7
2023-08-13T22:23:47.475Z,18.7
2023-08-13T22:25:27.932Z,18.7
2023-08-13T22:27:08.395Z,18.7
2023-08-13T22:28:48.869Z,18.7
2023-08-13T22:30:29.520Z,18.7
2023-08-13T22:32:09.956Z,18.7
2023-08-13T22:33:50.413Z,18.7
2023-08-13T22:35:30.986Z,18.7
2023-08-13T22:37:11.451Z,18.7